Time;durP1;ratioP1;P1;durP2;ratioP2;P2;SDS_P1;SDS_P2;PMS_P1;PMS_P2;Temp;Humidity;BMP_temperature;BMP_pressure;BME280_temperature;BME280_humidity;BME280_pressure;Samples;Min_cycle;Max_cycle;Signal;HPM_P1;HPM_P2
2022/07/06 00:00:43;;;;;;;;;;;;;;;;;;4995553;28;19937;-77
2022/07/06 00:03:09;;;;;;;;;;;;;;;;;;4996269;28;19930;-77
2022/07/06 00:05:37;;;;;;;;;;;;;;;;;;4996179;28;19926;-77
2022/07/06 00:08:04;;;;;;;;;;;;;;;;;;4996274;28;20339;-77
2022/07/06 00:10:30;;;;;;;;;;;;;;;;;;4995491;28;19929;-76
2022/07/06 00:12:57;;;;;;;;;;;;;;;;;;4996156;28;20005;-77
2022/07/06 00:15:23;;;;;;;;;;;;;;;;;;4996004;28;19969;-78
2022/07/06 00:17:50;;;;;;;;;;;;;;;;;;4995589;28;19926;-77
2022/07/06 00:20:16;;;;;;;;;;;;;;;;;;4995401;28;19972;-78
2022/07/06 00:22:44;;;;;;;;;;;;;;;;;;4995562;28;20373;-77
2022/07/06 00:25:10;;;;;;;;;;;;;;;;;;4995676;28;20024;-77
2022/07/06 00:27:37;;;;;;;;;;;;;;;;;;4995839;28;20017;-77
2022/07/06 00:30:03;;;;;;;;;;;;;;;;;;4995279;28;20020;-77
2022/07/06 00:32:30;;;;;;;;;;;;;;;;;;4995510;28;20013;-76
2022/07/06 00:34:56;;;;;;;;;;;;;;;;;;4995409;28;20021;-76
2022/07/06 00:37:23;;;;;;;;;;;;;;;;;;4995245;28;20024;-78
2022/07/06 00:39:50;;;;;;;;;;;;;;;;;;4995416;28;19965;-77
2022/07/06 00:42:17;;;;;;;;;;;;;;;;;;4995407;28;20009;-77
2022/07/06 00:44:43;;;;;;;;;;;;;;;;;;4995586;28;19936;-77
2022/07/06 00:47:10;;;;;;;;;;;;;;;;;;4995288;28;19932;-78
2022/07/06 00:52:20;;;;;;;;;;;;;;;;;;4994906;28;20424;-77
2022/07/06 00:54:47;;;;;;;;;;;;;;;;;;4995007;28;20024;-77
2022/07/06 00:57:15;;;;;;;;;;;;;;;;;;4994923;28;19926;-78
2022/07/06 00:59:42;;;;;;;;;;;;;;;;;;4994457;28;20021;-78
2022/07/06 01:02:09;;;;;;;;;;;;;;;;;;4995468;28;19926;-76
2022/07/06 01:04:35;;;;;;;;;;;;;;;;;;4995004;28;19972;-76
2022/07/06 01:07:02;;;;;;;;;;;;;;;;;;4994348;28;20381;-77
2022/07/06 01:09:28;;;;;;;;;;;;;;;;;;4994768;28;20010;-77
2022/07/06 01:11:55;;;;;;;;;;;;;;;;;;4994806;28;20439;-78
2022/07/06 01:14:23;;;;;;;;;;;;;;;;;;4995517;28;20017;-77
2022/07/06 01:16:49;;;;;;;;;;;;;;;;;;4995122;28;20013;-78
2022/07/06 01:19:16;;;;;;;;;;;;;;;;;;4994827;28;20411;-79
2022/07/06 01:21:44;;;;;;;;;;;;;;;;;;4994576;28;19981;-77
2022/07/06 01:24:11;;;;;;;;;;;;;;;;;;4994948;28;20024;-78
2022/07/06 01:26:37;;;;;;;;;;;;;;;;;;4994367;28;20046;-78
2022/07/06 01:29:04;;;;;;;;;;;;;;;;;;4994892;28;20016;-77
2022/07/06 01:31:30;;;;;;;;;;;;;;;;;;4994378;28;20009;-77
2022/07/06 01:33:57;;;;;;;;;;;;;;;;;;4994921;28;19932;-78
2022/07/06 01:36:24;;;;;;;;;;;;;;;;;;4994628;28;19930;-78
2022/07/06 01:38:53;;;;;;;;;;;;;;;;;;4995243;28;20016;-78
2022/07/06 01:41:20;;;;;;;;;;;;;;;;;;4994867;28;20017;-78
2022/07/06 01:43:46;;;;;;;;;;;;;;;;;;4995460;28;19929;-78
2022/07/06 01:46:13;;;;;;;;;;;;;;;;;;4994789;28;20008;-78
2022/07/06 01:48:40;;;;;;;;;;;;;;;;;;4994800;28;19932;-78
2022/07/06 01:51:06;;;;;;;;;;;;;;;;;;4993605;28;20444;-79
2022/07/06 01:53:33;;;;;;;;;;;;;;;;;;4993893;28;20359;-77
2022/07/06 01:56:01;;;;;;;;;;;;;;;;;;4994344;28;20012;-77
2022/07/06 01:58:27;;;;;;;;;;;;;;;;;;4994881;28;19926;-77
2022/07/06 02:00:53;;;;;;;;;;;;;;;;;;4995731;28;20020;-77
2022/07/06 02:03:20;;;;;;;;;;;;;;;;;;4993405;28;19965;-79
2022/07/06 02:05:46;;;;;;;;;;;;;;;;;;4993714;28;19932;-79
2022/07/06 02:08:13;;;;;;;;;;;;;;;;;;4993568;28;20005;-79
2022/07/06 02:10:40;;;;;;;;;;;;;;;;;;4993288;28;20013;-78
2022/07/06 02:13:07;;;;;;;;;;;;;;;;;;4993594;28;19933;-78
2022/07/06 02:15:34;;;;;;;;;;;;;;;;;;4993830;28;20032;-77
2022/07/06 02:18:00;;;;;;;;;;;;;;;;;;4993606;28;20021;-77
2022/07/06 02:20:27;;;;;;;;;;;;;;;;;;4993223;28;20016;-78
2022/07/06 02:22:53;;;;;;;;;;;;;;;;;;4993533;28;20009;-78
2022/07/06 02:25:20;;;;;;;;;;;;;;;;;;4993410;28;20013;-78
2022/07/06 02:27:46;;;;;;;;;;;;;;;;;;4993329;28;19932;-78
2022/07/06 02:30:14;;;;;;;;;;;;;;;;;;4993066;28;20387;-78
2022/07/06 02:32:40;;;;;;;;;;;;;;;;;;4993193;28;20420;-78
2022/07/06 02:35:07;;;;;;;;;;;;;;;;;;4993270;28;20012;-79
2022/07/06 02:37:33;;;;;;;;;;;;;;;;;;4993324;28;19989;-77
2022/07/06 02:40:01;;;;;;;;;;;;;;;;;;4996903;28;20008;-77
2022/07/06 02:42:27;;;;;;;;;;;;;;;;;;4997623;28;19926;-77
2022/07/06 02:44:54;;;;;;;;;;;;;;;;;;4997448;28;20004;-77
2022/07/06 02:47:21;;;;;;;;;;;;;;;;;;4997213;28;20133;-78
2022/07/06 02:49:48;;;;;;;;;;;;;;;;;;4996335;28;20004;-78
2022/07/06 02:52:14;;;;;;;;;;;;;;;;;;4997209;28;20016;-78
2022/07/06 02:54:41;;;;;;;;;;;;;;;;;;4997546;28;20025;-78
2022/07/06 02:57:07;;;;;;;;;;;;;;;;;;4997196;28;19969;-78
2022/07/06 02:59:34;;;;;;;;;;;;;;;;;;4991192;28;19926;-77
2022/07/06 03:02:00;;;;;;;;;;;;;;;;;;4977685;28;19930;-77
2022/07/06 03:04:28;;;;;;;;;;;;;;;;;;4978371;28;20088;-78
2022/07/06 03:06:54;;;;;;;;;;;;;;;;;;4978823;28;19985;-78
2022/07/06 03:09:21;;;;;;;;;;;;;;;;;;4977844;28;19969;-78
2022/07/06 03:11:47;;;;;;;;;;;;;;;;;;4978545;28;20021;-77
2022/07/06 03:14:14;;;;;;;;;;;;;;;;;;4977555;28;20001;-77
2022/07/06 03:16:40;;;;;;;;;;;;;;;;;;4981169;28;19988;-78
2022/07/06 03:19:07;;;;;;;;;;;;;;;;;;4982993;28;19972;-77
2022/07/06 03:21:34;;;;;;;;;;;;;;;;;;4982215;28;20029;-77
2022/07/06 03:24:01;;;;;;;;;;;;;;;;;;4981808;28;19965;-77
2022/07/06 03:26:27;;;;;;;;;;;;;;;;;;4982279;28;19932;-79
2022/07/06 03:28:54;;;;;;;;;;;;;;;;;;4979952;28;20274;-76
2022/07/06 03:31:20;;;;;;;;;;;;;;;;;;4980013;28;19934;-78
2022/07/06 03:33:47;;;;;;;;;;;;;;;;;;4980359;28;20460;-78
2022/07/06 03:36:13;;;;;;;;;;;;;;;;;;4979219;28;20401;-77
2022/07/06 03:38:41;;;;;;;;;;;;;;;;;;4980029;28;20359;-78
2022/07/06 03:41:07;;;;;;;;;;;;;;;;;;4980481;28;20324;-77
2022/07/06 03:43:34;;;;;;;;;;;;;;;;;;4981053;28;20025;-78
2022/07/06 03:46:00;;;;;;;;;;;;;;;;;;4980310;28;19933;-78
2022/07/06 03:48:27;;;;;;;;;;;;;;;;;;4980059;28;19932;-79
2022/07/06 03:50:53;;;;;;;;;;;;;;;;;;4980700;28;20352;-78
2022/07/06 03:53:20;;;;;;;;;;;;;;;;;;4980256;28;20021;-78
2022/07/06 03:56:27;;;;;;;;;;;;;;;;;;4980290;28;20017;-79
2022/07/06 03:58:34;;;;;;;;;;;;;;;;;;4980005;28;19927;-78
2022/07/06 04:01:00;;;;;;;;;;;;;;;;;;4997388;28;19966;-78
2022/07/06 04:03:27;;;;;;;;;;;;;;;;;;4999166;28;20020;-78
2022/07/06 04:05:53;;;;;;;;;;;;;;;;;;5000145;28;20026;-79
2022/07/06 04:08:20;;;;;;;;;;;;;;;;;;4999902;28;19973;-79
2022/07/06 04:10:48;;;;;;;;;;;;;;;;;;4999397;28;20317;-78
2022/07/06 04:13:14;;;;;;;;;;;;;;;;;;4999396;28;19981;-78
2022/07/06 04:15:41;;;;;;;;;;;;;;;;;;5000969;28;20448;-78
2022/07/06 04:18:07;;;;;;;;;;;;;;;;;;4999375;28;20364;-79
2022/07/06 04:20:34;;;;;;;;;;;;;;;;;;4999056;28;19932;-78
2022/07/06 04:23:01;;;;;;;;;;;;;;;;;;4999368;28;19973;-78
2022/07/06 04:25:28;;;;;;;;;;;;;;;;;;5000486;28;19949;-79
2022/07/06 04:27:55;;;;;;;;;;;;;;;;;;4996479;28;20389;-77
2022/07/06 04:30:22;;;;;;;;;;;;;;;;;;4996974;28;20012;-78
2022/07/06 04:32:48;;;;;;;;;;;;;;;;;;5001128;28;19933;-78
2022/07/06 04:35:15;;;;;;;;;;;;;;;;;;5000484;28;19993;-77
2022/07/06 04:37:41;;;;;;;;;;;;;;;;;;5000473;28;19957;-79
2022/07/06 04:40:08;;;;;;;;;;;;;;;;;;4998721;28;19933;-78
2022/07/06 04:42:35;;;;;;;;;;;;;;;;;;4998948;28;19973;-79
2022/07/06 04:45:02;;;;;;;;;;;;;;;;;;4997917;28;19932;-77
2022/07/06 04:47:29;;;;;;;;;;;;;;;;;;4998944;28;19936;-78
2022/07/06 04:49:55;;;;;;;;;;;;;;;;;;4998883;28;19964;-78
2022/07/06 04:52:22;;;;;;;;;;;;;;;;;;4999282;28;19992;-79
2022/07/06 04:54:48;;;;;;;;;;;;;;;;;;4998525;28;19925;-78
2022/07/06 04:57:15;;;;;;;;;;;;;;;;;;4998291;28;20360;-78
2022/07/06 04:59:41;;;;;;;;;;;;;;;;;;4992093;28;19926;-77
2022/07/06 05:02:09;;;;;;;;;;;;;;;;;;4978275;28;19926;-78
2022/07/06 05:04:35;;;;;;;;;;;;;;;;;;4978597;28;20025;-78
2022/07/06 05:07:02;;;;;;;;;;;;;;;;;;4977485;28;20024;-79
2022/07/06 05:09:28;;;;;;;;;;;;;;;;;;5025195;23;19973;-81
2022/07/06 05:11:55;;;;;;;;;;;;;;;;;;5038218;28;20012;-79
2022/07/06 05:14:21;;;;;;;;;;;;;;;;;;5038664;28;19976;-78
2022/07/06 05:16:48;;;;;;;;;;;;;;;;;;5041549;28;19979;-79
2022/07/06 05:19:16;;;;;;;;;;;;;;;;;;5038107;28;20418;-79
2022/07/06 05:21:42;;;;;;;;;;;;;;;;;;5034388;28;19972;-79
2022/07/06 05:24:09;;;;;;;;;;;;;;;;;;5035970;28;20330;-80
2022/07/06 05:26:35;;;;;;;;;;;;;;;;;;5038818;28;20016;-79
2022/07/06 05:29:02;;;;;;;;;;;;;;;;;;5036969;28;19960;-79
2022/07/06 05:31:28;;;;;;;;;;;;;;;;;;5038561;28;19964;-80
2022/07/06 05:33:55;;;;;;;;;;;;;;;;;;5037923;28;19997;-80
2022/07/06 05:36:23;;;;;;;;;;;;;;;;;;5038217;28;19932;-81
2022/07/06 05:38:49;;;;;;;;;;;;;;;;;;5036193;28;20431;-81
2022/07/06 05:41:15;;;;;;;;;;;;;;;;;;5038124;28;20047;-80
2022/07/06 05:43:42;;;;;;;;;;;;;;;;;;5036861;28;19971;-80
2022/07/06 05:46:09;;;;;;;;;;;;;;;;;;5037763;28;20064;-80
2022/07/06 05:51:19;;;;;;;;;;;;;;;;;;5036662;28;20376;-76
2022/07/06 05:53:47;;;;;;;;;;;;;;;;;;5040826;28;20027;-78
2022/07/06 05:56:14;;;;;;;;;;;;;;;;;;5043505;28;19933;-77
2022/07/06 05:58:40;;;;;;;;;;;;;;;;;;5041749;28;19991;-77
2022/07/06 06:01:07;;;;;;;;;;;;;;;;;;5040655;28;19929;-78
2022/07/06 06:03:33;;;;;;;;;;;;;;;;;;5035487;28;19964;-79
2022/07/06 06:06:00;;;;;;;;;;;;;;;;;;5035065;28;20011;-78
2022/07/06 06:08:26;;;;;;;;;;;;;;;;;;5047395;28;19960;-79
2022/07/06 06:10:54;;;;;;;;;;;;;;;;;;5041673;28;19925;-79
2022/07/06 06:13:22;;;;;;;;;;;;;;;;;;5043112;28;19964;-79
2022/07/06 06:15:49;;;;;;;;;;;;;;;;;;5041739;28;19925;-81
2022/07/06 06:18:17;;;;;;;;;;;;;;;;;;5041671;28;19971;-81
2022/07/06 06:20:43;;;;;;;;;;;;;;;;;;5047225;28;19976;-79
2022/07/06 06:23:10;;;;;;;;;;;;;;;;;;5046906;28;19964;-81
2022/07/06 06:25:37;;;;;;;;;;;;;;;;;;5051605;28;19971;-78
2022/07/06 06:28:06;;;;;;;;;;;;;;;;;;5052613;28;20192;-79
2022/07/06 06:30:33;;;;;;;;;;;;;;;;;;5050165;28;19925;-78
2022/07/06 06:33:06;;;;;;;;;;;;;;;;;;5048919;28;19925;-77
2022/07/06 06:35:33;;;;;;;;;;;;;;;;;;5044339;28;19925;-79
2022/07/06 06:37:59;;;;;;;;;;;;;;;;;;5042853;28;19968;-78
2022/07/06 06:40:26;;;;;;;;;;;;;;;;;;5038637;28;19979;-76
2022/07/06 06:42:52;;;;;;;;;;;;;;;;;;5051722;28;19925;-78
2022/07/06 06:45:20;;;;;;;;;;;;;;;;;;5049834;28;19925;-78
2022/07/06 06:47:47;;;;;;;;;;;;;;;;;;5038261;28;19979;-78
2022/07/06 06:50:13;;;;;;;;;;;;;;;;;;5034476;28;20133;-78
2022/07/06 06:52:40;;;;;;;;;;;;;;;;;;5033973;28;19925;-78
2022/07/06 06:55:07;;;;;;;;;;;;;;;;;;5033571;28;20011;-77
2022/07/06 06:57:33;;;;;;;;;;;;;;;;;;5032844;28;19975;-76
2022/07/06 07:00:00;;;;;;;;;;;;;;;;;;5016019;28;19929;-79
2022/07/06 07:02:28;;;;;;;;;;;;;;;;;;5018554;28;20438;-79
2022/07/06 07:04:54;;;;;;;;;;;;;;;;;;5016998;28;19968;-78
2022/07/06 07:07:21;;;;;;;;;;;;;;;;;;5013816;28;19976;-78
2022/07/06 07:09:47;;;;;;;;;;;;;;;;;;5012203;28;19925;-79
2022/07/06 07:12:14;;;;;;;;;;;;;;;;;;5012767;28;19983;-78
2022/07/06 07:14:41;;;;;;;;;;;;;;;;;;5013548;28;20024;-78
2022/07/06 07:17:08;;;;;;;;;;;;;;;;;;5011286;28;20299;-79
2022/07/06 07:19:36;;;;;;;;;;;;;;;;;;5016190;28;20544;-78
2022/07/06 07:22:02;;;;;;;;;;;;;;;;;;5013731;28;19976;-78
2022/07/06 07:24:29;;;;;;;;;;;;;;;;;;5013827;28;20008;-79
2022/07/06 07:26:55;;;;;;;;;;;;;;;;;;5014472;28;20016;-78
2022/07/06 07:29:22;;;;;;;;;;;;;;;;;;5014440;28;20044;-80
2022/07/06 07:31:48;;;;;;;;;;;;;;;;;;5014587;28;19929;-79
2022/07/06 07:34:15;;;;;;;;;;;;;;;;;;5015474;28;19971;-79
2022/07/06 07:36:43;;;;;;;;;;;;;;;;;;5015029;28;19929;-79
2022/07/06 07:39:10;;;;;;;;;;;;;;;;;;5013404;28;20560;-78
2022/07/06 07:41:36;;;;;;;;;;;;;;;;;;5016626;28;19989;-78
2022/07/06 07:44:03;;;;;;;;;;;;;;;;;;5012581;28;20016;-78
2022/07/06 07:46:29;;;;;;;;;;;;;;;;;;5015175;28;19926;-76
2022/07/06 07:48:56;;;;;;;;;;;;;;;;;;5016190;28;19965;-79
2022/07/06 07:51:22;;;;;;;;;;;;;;;;;;5013569;28;20017;-79
2022/07/06 07:53:50;;;;;;;;;;;;;;;;;;5016045;28;20020;-79
2022/07/06 07:56:17;;;;;;;;;;;;;;;;;;5016169;28;19925;-79
2022/07/06 07:58:43;;;;;;;;;;;;;;;;;;5014898;28;20011;-78
2022/07/06 08:01:10;;;;;;;;;;;;;;;;;;5014526;28;19972;-78
2022/07/06 08:03:37;;;;;;;;;;;;;;;;;;5018635;28;19926;-79
2022/07/06 08:06:03;;;;;;;;;;;;;;;;;;5017421;28;20021;-77
2022/07/06 08:08:30;;;;;;;;;;;;;;;;;;5017757;28;19926;-77
2022/07/06 08:10:57;;;;;;;;;;;;;;;;;;5022862;28;20042;-77
2022/07/06 08:13:24;;;;;;;;;;;;;;;;;;5021056;28;19976;-77
2022/07/06 08:15:50;;;;;;;;;;;;;;;;;;5021515;28;19973;-77
2022/07/06 08:18:17;;;;;;;;;;;;;;;;;;5020643;28;19995;-76
2022/07/06 08:20:44;;;;;;;;;;;;;;;;;;5016881;28;19961;-78
2022/07/06 08:23:10;;;;;;;;;;;;;;;;;;5017538;28;20019;-79
2022/07/06 08:25:36;;;;;;;;;;;;;;;;;;5014077;28;19968;-78
2022/07/06 08:28:04;;;;;;;;;;;;;;;;;;5012510;28;19971;-78
2022/07/06 08:30:34;;;;;;;;;;;;;;;;;;5014665;28;19969;-79
2022/07/06 08:33:01;;;;;;;;;;;;;;;;;;5014939;28;20044;-78
2022/07/06 08:35:27;;;;;;;;;;;;;;;;;;5017810;28;20353;-77
2022/07/06 08:37:54;;;;;;;;;;;;;;;;;;5015231;28;19984;-77
2022/07/06 08:40:20;;;;;;;;;;;;;;;;;;5018485;28;20439;-79
2022/07/06 08:42:48;;;;;;;;;;;;;;;;;;5019928;28;19938;-78
2022/07/06 08:45:17;;;;;;;;;;;;;;;;;;5019274;28;20020;-79
2022/07/06 08:47:44;;;;;;;;;;;;;;;;;;5018967;28;19925;-78
2022/07/06 08:50:11;;;;;;;;;;;;;;;;;;5019243;28;20427;-79
2022/07/06 08:52:38;;;;;;;;;;;;;;;;;;5026846;28;20028;-79
2022/07/06 08:55:05;;;;;;;;;;;;;;;;;;5026000;28;19925;-81
2022/07/06 08:57:31;;;;;;;;;;;;;;;;;;5020746;28;19976;-78
2022/07/06 08:59:58;;;;;;;;;;;;;;;;;;5020545;28;19980;-79
2022/07/06 09:02:26;;;;;;;;;;;;;;;;;;5019593;28;20262;-79
2022/07/06 09:04:55;;;;;;;;;;;;;;;;;;5025802;28;19931;-80
2022/07/06 09:07:22;;;;;;;;;;;;;;;;;;5023226;28;19964;-79
2022/07/06 09:09:49;;;;;;;;;;;;;;;;;;5022833;28;19973;-80
2022/07/06 09:12:16;;;;;;;;;;;;;;;;;;5020413;28;20369;-79
2022/07/06 09:14:42;;;;;;;;;;;;;;;;;;5017522;28;20620;-79
2022/07/06 09:17:09;;;;;;;;;;;;;;;;;;5017809;28;19975;-79
2022/07/06 09:19:37;;;;;;;;;;;;;;;;;;5018178;28;19929;-80
2022/07/06 09:22:04;;;;;;;;;;;;;;;;;;5017182;28;19926;-79
2022/07/06 09:24:31;;;;;;;;;;;;;;;;;;5016333;28;19968;-79
2022/07/06 09:30:03;;;;;;;;;;;;;;;;;;5014343;28;19930;-80
2022/07/06 09:32:29;;;;;;;;;;;;;;;;;;5016832;28;19925;-79
2022/07/06 09:34:57;;;;;;;;;;;;;;;;;;5019351;28;20036;-80
2022/07/06 09:37:24;;;;;;;;;;;;;;;;;;5025145;28;19956;-80
2022/07/06 09:39:50;;;;;;;;;;;;;;;;;;5029997;28;19933;-79
2022/07/06 09:42:17;;;;;;;;;;;;;;;;;;5030850;28;19913;-79
2022/07/06 09:44:43;;;;;;;;;;;;;;;;;;5020030;28;19926;-78
2022/07/06 09:47:10;;;;;;;;;;;;;;;;;;5019325;28;20461;-78
2022/07/06 09:49:37;;;;;;;;;;;;;;;;;;5022627;28;19932;-77
2022/07/06 09:52:07;;;;;;;;;;;;;;;;;;5030000;28;20269;-79
2022/07/06 09:54:33;;;;;;;;;;;;;;;;;;5032804;28;19956;-79
2022/07/06 09:57:00;;;;;;;;;;;;;;;;;;5026570;28;20246;-80
2022/07/06 09:59:27;;;;;;;;;;;;;;;;;;5024188;28;19940;-80
2022/07/06 10:01:54;;;;;;;;;;;;;;;;;;5024741;28;19983;-80
2022/07/06 10:04:21;;;;;;;;;;;;;;;;;;5023226;28;20244;-79
2022/07/06 10:06:48;;;;;;;;;;;;;;;;;;5022307;28;19972;-80
2022/07/06 10:09:16;;;;;;;;;;;;;;;;;;5022244;28;20006;-79
2022/07/06 10:11:44;;;;;;;;;;;;;;;;;;5021242;28;20012;-80
2022/07/06 10:14:11;;;;;;;;;;;;;;;;;;5021232;28;19933;-79
2022/07/06 10:16:38;;;;;;;;;;;;;;;;;;5018094;28;19948;-79
2022/07/06 10:19:06;;;;;;;;;;;;;;;;;;5017062;28;20012;-79
2022/07/06 10:21:32;;;;;;;;;;;;;;;;;;5015556;28;20481;-80
2022/07/06 10:24:00;;;;;;;;;;;;;;;;;;5011940;28;19967;-78
2022/07/06 10:26:29;;;;;;;;;;;;;;;;;;5009950;28;19933;-78
2022/07/06 10:28:55;;;;;;;;;;;;;;;;;;5002069;28;19926;-78
2022/07/06 10:31:23;;;;;;;;;;;;;;;;;;5014100;28;19953;-78
2022/07/06 10:33:50;;;;;;;;;;;;;;;;;;5019961;28;19925;-77
2022/07/06 10:36:16;;;;;;;;;;;;;;;;;;4995225;28;19930;-78
2022/07/06 10:38:47;;;;;;;;;;;;;;;;;;4992266;28;19932;-78
2022/07/06 10:41:13;;;;;;;;;;;;;;;;;;4995953;28;19997;-80
2022/07/06 10:43:42;;;;;;;;;;;;;;;;;;5000958;28;19926;-79
2022/07/06 10:46:10;;;;;;;;;;;;;;;;;;5000587;28;20006;-80
2022/07/06 10:48:37;;;;;;;;;;;;;;;;;;4999588;28;20424;-80
2022/07/06 10:51:06;;;;;;;;;;;;;;;;;;4996960;28;19926;-79
2022/07/06 10:53:34;;;;;;;;;;;;;;;;;;4998414;28;19926;-80
2022/07/06 10:56:01;;;;;;;;;;;;;;;;;;4998321;28;20423;-80
2022/07/06 10:58:46;;;;;;;;;;;;;;;;;;4996435;28;20021;-78
2022/07/06 11:01:13;;;;;;;;;;;;;;;;;;5014739;28;19949;-79
2022/07/06 11:03:41;;;;;;;;;;;;;;;;;;5014973;28;20467;-78
2022/07/06 11:06:09;;;;;;;;;;;;;;;;;;5014912;28;19926;-79
2022/07/06 11:08:46;;;;;;;;;;;;;;;;;;5026283;22;20020;-70
2022/07/06 11:11:14;;;;;;;;;;;;;;;;;;4991375;28;19934;-70
2022/07/06 11:13:48;;;;;;;;;;;;;;;;;;4972125;28;19927;-70
2022/07/06 11:16:15;;;;;;;;;;;;;;;;;;4971783;28;19989;-70
2022/07/06 11:18:42;;;;;;;;;;;;;;;;;;4971847;28;19929;-70
2022/07/06 11:21:18;;;;;;;;;;;;;;;;;;4972782;28;19926;-70
2022/07/06 11:23:46;;;;;;;;;;;;;;;;;;4972894;28;19929;-70
2022/07/06 11:26:14;;;;;;;;;;;;;;;;;;4971878;28;20387;-69
2022/07/06 11:28:40;;;;;;;;;;;;;;;;;;4971832;28;19934;-69
2022/07/06 11:31:08;;;;;;;;;;;;;;;;;;4971602;28;20371;-69
2022/07/06 11:33:35;;;;;;;;;;;;;;;;;;4971897;28;19981;-69
2022/07/06 11:36:14;;;;;;;;;;;;;;;;;;4971567;28;19926;-68
2022/07/06 11:38:40;;;;;;;;;;;;;;;;;;4975197;28;19926;-69
2022/07/06 11:41:07;;;;;;;;;;;;;;;;;;4974620;28;20350;-69
2022/07/06 11:43:34;;;;;;;;;;;;;;;;;;4975129;28;19966;-69
2022/07/06 11:46:00;;;;;;;;;;;;;;;;;;4975610;28;20029;-69
2022/07/06 11:48:28;;;;;;;;;;;;;;;;;;4975421;28;19977;-69
2022/07/06 11:50:59;;;;;;;;;;;;;;;;;;4974967;28;19937;-69
2022/07/06 11:53:25;;;;;;;;;;;;;;;;;;4975253;28;19929;-69
2022/07/06 11:55:52;;;;;;;;;;;;;;;;;;4975211;28;19934;-69
2022/07/06 11:58:21;;;;;;;;;;;;;;;;;;4975134;28;19976;-69
2022/07/06 12:01:02;;;;;;;;;;;;;;;;;;4974064;28;20430;-69
2022/07/06 12:03:32;;;;;;;;;;;;;;;;;;4973777;28;19933;-69
2022/07/06 12:05:59;;;;;;;;;;;;;;;;;;4974502;28;19926;-69
2022/07/06 12:08:25;;;;;;;;;;;;;;;;;;4974534;28;19927;-69
2022/07/06 12:10:53;;;;;;;;;;;;;;;;;;4974113;28;19948;-69
2022/07/06 12:13:19;;;;;;;;;;;;;;;;;;4975023;28;19926;-69
2022/07/06 12:15:46;;;;;;;;;;;;;;;;;;4975046;28;19926;-70
2022/07/06 12:18:12;;;;;;;;;;;;;;;;;;4974830;28;19930;-70
2022/07/06 12:20:41;;;;;;;;;;;;;;;;;;4974062;28;19981;-70
2022/07/06 12:23:08;;;;;;;;;;;;;;;;;;4974274;28;19957;-70
2022/07/06 12:25:34;;;;;;;;;;;;;;;;;;4975293;28;19926;-70
2022/07/06 12:28:01;;;;;;;;;;;;;;;;;;4972369;28;19926;-70
2022/07/06 12:30:28;;;;;;;;;;;;;;;;;;4974396;28;19934;-70
2022/07/06 12:33:14;;;;;;;;;;;;;;;;;;4974280;28;19930;-70
2022/07/06 12:35:42;;;;;;;;;;;;;;;;;;4972045;28;20016;-70
2022/07/06 12:38:08;;;;;;;;;;;;;;;;;;4973823;28;19933;-70
2022/07/06 12:40:36;;;;;;;;;;;;;;;;;;4974135;28;19934;-68
2022/07/06 12:43:03;;;;;;;;;;;;;;;;;;4974120;28;19926;-68
2022/07/06 12:45:29;;;;;;;;;;;;;;;;;;4974005;28;20180;-69
2022/07/06 12:48:00;;;;;;;;;;;;;;;;;;4974241;28;20430;-70
2022/07/06 12:50:33;;;;;;;;;;;;;;;;;;4973909;28;20037;-69
2022/07/06 12:53:01;;;;;;;;;;;;;;;;;;4971925;28;20391;-69
2022/07/06 12:55:28;;;;;;;;;;;;;;;;;;4974094;28;20344;-69
2022/07/06 12:57:55;;;;;;;;;;;;;;;;;;4974038;28;20012;-69
2022/07/06 13:00:22;;;;;;;;;;;;;;;;;;4973518;28;19949;-69
2022/07/06 13:02:53;;;;;;;;;;;;;;;;;;4974023;28;19926;-69
2022/07/06 13:05:27;;;;;;;;;;;;;;;;;;4975040;28;19926;-69
2022/07/06 13:07:54;;;;;;;;;;;;;;;;;;4974273;28;19926;-69
2022/07/06 13:10:22;;;;;;;;;;;;;;;;;;4973366;28;20387;-69
2022/07/06 13:12:48;;;;;;;;;;;;;;;;;;4974118;28;19931;-69
2022/07/06 13:15:15;;;;;;;;;;;;;;;;;;4973279;28;19925;-69
2022/07/06 13:17:42;;;;;;;;;;;;;;;;;;4971918;28;19993;-69
2022/07/06 13:20:10;;;;;;;;;;;;;;;;;;4969694;28;19930;-69
2022/07/06 13:22:37;;;;;;;;;;;;;;;;;;4973452;28;19926;-69
2022/07/06 13:25:04;;;;;;;;;;;;;;;;;;4973720;28;19956;-69
2022/07/06 13:27:32;;;;;;;;;;;;;;;;;;4973310;28;19926;-69
2022/07/06 13:29:59;;;;;;;;;;;;;;;;;;4971792;28;19933;-68
2022/07/06 13:32:26;;;;;;;;;;;;;;;;;;4973787;28;19926;-68
2022/07/06 13:34:52;;;;;;;;;;;;;;;;;;4972616;28;20383;-69
2022/07/06 13:37:20;;;;;;;;;;;;;;;;;;4973281;28;20358;-69
2022/07/06 13:39:46;;;;;;;;;;;;;;;;;;4973058;28;19926;-69
2022/07/06 13:42:13;;;;;;;;;;;;;;;;;;4973040;28;19989;-68
2022/07/06 13:44:41;;;;;;;;;;;;;;;;;;4971766;28;19926;-69
2022/07/06 13:47:07;;;;;;;;;;;;;;;;;;4972688;28;19934;-69
2022/07/06 13:49:34;;;;;;;;;;;;;;;;;;4972715;28;20319;-69
2022/07/06 13:52:03;;;;;;;;;;;;;;;;;;4972251;28;19989;-69
2022/07/06 13:54:30;;;;;;;;;;;;;;;;;;4972689;28;19926;-69
2022/07/06 13:56:56;;;;;;;;;;;;;;;;;;4972531;28;20520;-69
2022/07/06 13:59:23;;;;;;;;;;;;;;;;;;4971493;28;19930;-69
2022/07/06 14:01:51;;;;;;;;;;;;;;;;;;4972166;28;19926;-69
2022/07/06 14:04:17;;;;;;;;;;;;;;;;;;4973333;28;19997;-69
2022/07/06 14:06:44;;;;;;;;;;;;;;;;;;4971200;28;20052;-69
2022/07/06 14:09:11;;;;;;;;;;;;;;;;;;4973293;28;19996;-69
2022/07/06 14:11:37;;;;;;;;;;;;;;;;;;4972407;28;19926;-69
2022/07/06 14:14:06;;;;;;;;;;;;;;;;;;4972658;28;19926;-69
2022/07/06 14:16:35;;;;;;;;;;;;;;;;;;4955051;28;20496;-69
2022/07/06 14:19:03;;;;;;;;;;;;;;;;;;4972403;28;19933;-69
2022/07/06 14:21:30;;;;;;;;;;;;;;;;;;4972279;28;20403;-69
2022/07/06 14:23:57;;;;;;;;;;;;;;;;;;4972381;28;19955;-69
2022/07/06 14:26:23;;;;;;;;;;;;;;;;;;4973079;28;19926;-69
2022/07/06 14:28:50;;;;;;;;;;;;;;;;;;4972368;28;20327;-69
2022/07/06 14:31:17;;;;;;;;;;;;;;;;;;4972638;28;20343;-69
2022/07/06 14:33:43;;;;;;;;;;;;;;;;;;4972345;28;20347;-69
2022/07/06 14:36:12;;;;;;;;;;;;;;;;;;4972177;28;19933;-69
2022/07/06 14:38:38;;;;;;;;;;;;;;;;;;4971874;28;20451;-69
2022/07/06 14:41:05;;;;;;;;;;;;;;;;;;4972274;28;20308;-69
2022/07/06 14:43:31;;;;;;;;;;;;;;;;;;4972138;28;19926;-69
2022/07/06 14:45:58;;;;;;;;;;;;;;;;;;4972135;28;19926;-69
2022/07/06 14:48:24;;;;;;;;;;;;;;;;;;4971866;28;19926;-69
2022/07/06 14:50:52;;;;;;;;;;;;;;;;;;4972250;28;19933;-69
2022/07/06 14:53:20;;;;;;;;;;;;;;;;;;4972268;28;19929;-69
2022/07/06 14:55:48;;;;;;;;;;;;;;;;;;4971603;28;20224;-68
2022/07/06 14:58:17;;;;;;;;;;;;;;;;;;4972564;28;20273;-69
2022/07/06 15:00:44;;;;;;;;;;;;;;;;;;4972351;28;20406;-69
2022/07/06 15:03:10;;;;;;;;;;;;;;;;;;4972152;28;19933;-68
2022/07/06 15:05:37;;;;;;;;;;;;;;;;;;4972255;28;19969;-69
2022/07/06 15:08:03;;;;;;;;;;;;;;;;;;4972015;28;19926;-68
2022/07/06 15:10:31;;;;;;;;;;;;;;;;;;4972490;28;19930;-69
2022/07/06 15:12:58;;;;;;;;;;;;;;;;;;4976489;28;19926;-69
2022/07/06 15:15:24;;;;;;;;;;;;;;;;;;4976905;28;20336;-69
2022/07/06 15:17:51;;;;;;;;;;;;;;;;;;4976000;28;19926;-69
2022/07/06 15:20:18;;;;;;;;;;;;;;;;;;4975519;28;19948;-69
2022/07/06 15:22:44;;;;;;;;;;;;;;;;;;4975399;28;19930;-69
2022/07/06 15:25:11;;;;;;;;;;;;;;;;;;4975794;28;19926;-69
2022/07/06 15:27:39;;;;;;;;;;;;;;;;;;4975816;28;19933;-69
2022/07/06 15:30:06;;;;;;;;;;;;;;;;;;4975285;28;19930;-69
2022/07/06 15:32:34;;;;;;;;;;;;;;;;;;4975440;28;19926;-69
2022/07/06 15:35:00;;;;;;;;;;;;;;;;;;4975637;28;19930;-69
2022/07/06 15:37:27;;;;;;;;;;;;;;;;;;4975662;28;19973;-69
2022/07/06 15:39:53;;;;;;;;;;;;;;;;;;4975732;28;19961;-69
2022/07/06 15:42:20;;;;;;;;;;;;;;;;;;4975254;28;20375;-69
2022/07/06 15:44:51;;;;;;;;;;;;;;;;;;4975459;28;20387;-69
2022/07/06 15:47:18;;;;;;;;;;;;;;;;;;4975218;28;19933;-69
2022/07/06 15:49:45;;;;;;;;;;;;;;;;;;4974756;28;20379;-69
2022/07/06 15:52:11;;;;;;;;;;;;;;;;;;4975016;28;19996;-69
2022/07/06 15:54:38;;;;;;;;;;;;;;;;;;4975483;28;20420;-69
2022/07/06 15:57:05;;;;;;;;;;;;;;;;;;4975068;28;19926;-68
2022/07/06 15:59:32;;;;;;;;;;;;;;;;;;4975844;28;19926;-69
2022/07/06 16:02:00;;;;;;;;;;;;;;;;;;4975740;28;20247;-69
2022/07/06 16:04:28;;;;;;;;;;;;;;;;;;4974928;28;19933;-69
2022/07/06 16:06:55;;;;;;;;;;;;;;;;;;4974924;28;20387;-69
2022/07/06 16:09:22;;;;;;;;;;;;;;;;;;4974557;28;19926;-69
2022/07/06 16:11:48;;;;;;;;;;;;;;;;;;4974715;28;19930;-69
2022/07/06 16:14:15;;;;;;;;;;;;;;;;;;4974895;28;19930;-69
2022/07/06 16:16:42;;;;;;;;;;;;;;;;;;4975374;28;19926;-69
2022/07/06 16:19:10;;;;;;;;;;;;;;;;;;4974699;28;19927;-69
2022/07/06 16:21:37;;;;;;;;;;;;;;;;;;4974293;28;19926;-68
2022/07/06 16:24:03;;;;;;;;;;;;;;;;;;4974717;28;20375;-69
2022/07/06 16:26:30;;;;;;;;;;;;;;;;;;4975725;28;19941;-69
2022/07/06 16:28:56;;;;;;;;;;;;;;;;;;4975551;28;19981;-69
2022/07/06 16:31:23;;;;;;;;;;;;;;;;;;4974584;28;19962;-69
2022/07/06 16:33:50;;;;;;;;;;;;;;;;;;4974193;28;19982;-69
2022/07/06 16:36:18;;;;;;;;;;;;;;;;;;4974708;28;19930;-69
2022/07/06 16:38:44;;;;;;;;;;;;;;;;;;4974320;28;19926;-69
2022/07/06 16:41:11;;;;;;;;;;;;;;;;;;4973992;28;19926;-69
2022/07/06 16:43:38;;;;;;;;;;;;;;;;;;4974241;28;20447;-69
2022/07/06 16:46:04;;;;;;;;;;;;;;;;;;4974141;28;20398;-69
2022/07/06 16:48:31;;;;;;;;;;;;;;;;;;4974172;28;20410;-69
2022/07/06 16:50:58;;;;;;;;;;;;;;;;;;4973611;28;19926;-68
2022/07/06 16:53:26;;;;;;;;;;;;;;;;;;4974119;28;20368;-68